Time;durP1;ratioP1;P1;durP2;ratioP2;P2;SDS_P1;SDS_P2;PMS_P1;PMS_P2;Temp;Humidity;BMP_temperature;BMP_pressure;BME280_temperature;BME280_humidity;BME280_pressure;Samples;Min_cycle;Max_cycle;Signal;HPM_P1;HPM_P2
2022/03/16 00:00:22;;;;;;;20.70;15.13;;;;;;;;;;5096547;28;20600;-77
2022/03/16 00:02:51;;;;;;;18.63;13.90;;;;;;;;;;5096815;28;20201;-77
2022/03/16 00:05:19;;;;;;;15.47;12.77;;;;;;;;;;5096375;28;20610;-77
2022/03/16 00:07:49;;;;;;;17.40;12.73;;;;;;;;;;5096358;28;20222;-77
2022/03/16 00:10:18;;;;;;;19.83;13.30;;;;;;;;;;5096356;28;20223;-77
2022/03/16 00:12:46;;;;;;;18.23;13.33;;;;;;;;;;5096925;28;20258;-77
2022/03/16 00:15:15;;;;;;;18.83;14.70;;;;;;;;;;5096112;28;20259;-77
2022/03/16 00:17:43;;;;;;;17.67;13.87;;;;;;;;;;5096055;28;20692;-77
2022/03/16 00:20:12;;;;;;;19.27;14.37;;;;;;;;;;5094560;28;20201;-77
2022/03/16 00:22:41;;;;;;;17.20;13.70;;;;;;;;;;5095698;28;20194;-77
2022/03/16 00:25:11;;;;;;;17.97;13.60;;;;;;;;;;5095577;28;20586;-77
2022/03/16 00:27:40;;;;;;;17.93;13.73;;;;;;;;;;5095359;28;20221;-77
2022/03/16 00:30:09;;;;;;;17.30;13.17;;;;;;;;;;5095568;28;20222;-77
2022/03/16 00:32:38;;;;;;;17.40;12.83;;;;;;;;;;5078614;28;20202;-78
2022/03/16 00:35:07;;;;;;;16.53;13.30;;;;;;;;;;5090832;28;20198;-77
2022/03/16 00:37:35;;;;;;;16.70;12.33;;;;;;;;;;5086819;28;20229;-77
2022/03/16 00:40:04;;;;;;;18.03;12.93;;;;;;;;;;5091528;28;20202;-78
2022/03/16 00:42:34;;;;;;;19.20;13.10;;;;;;;;;;5096187;28;20225;-77
2022/03/16 00:45:02;;;;;;;14.27;12.20;;;;;;;;;;5095915;28;20198;-77
2022/03/16 00:47:31;;;;;;;17.07;12.27;;;;;;;;;;5095617;28;20614;-77
2022/03/16 00:49:59;;;;;;;16.43;11.93;;;;;;;;;;5095496;28;20221;-77
2022/03/16 00:52:28;;;;;;;15.43;11.57;;;;;;;;;;5075829;28;20206;-77
2022/03/16 00:54:56;;;;;;;17.37;11.33;;;;;;;;;;5088095;28;20202;-77
2022/03/16 00:57:25;;;;;;;14.83;11.17;;;;;;;;;;5094900;28;20240;-77
2022/03/16 00:59:54;;;;;;;14.47;10.83;;;;;;;;;;5096231;28;20201;-78
2022/03/16 01:02:23;;;;;;;15.33;11.17;;;;;;;;;;5095923;28;20262;-77
2022/03/16 01:04:54;;;;;;;15.30;11.00;;;;;;;;;;5075577;28;20230;-77
2022/03/16 01:07:22;;;;;;;15.33;11.50;;;;;;;;;;5093853;28;20232;-77
2022/03/16 01:09:51;;;;;;;13.67;10.83;;;;;;;;;;5095630;28;20278;-77
2022/03/16 01:12:20;;;;;;;16.87;11.03;;;;;;;;;;5095143;28;20224;-77
2022/03/16 01:14:49;;;;;;;18.57;12.43;;;;;;;;;;5096373;28;20196;-77
2022/03/16 01:17:19;;;;;;;17.97;10.77;;;;;;;;;;5096245;28;20233;-77
2022/03/16 01:19:47;;;;;;;15.03;9.97;;;;;;;;;;5096229;28;20258;-76
2022/03/16 01:22:16;;;;;;;15.07;9.23;;;;;;;;;;5096943;28;20612;-77
2022/03/16 01:24:44;;;;;;;13.97;10.03;;;;;;;;;;5096848;28;20209;-77
2022/03/16 01:27:13;;;;;;;11.93;9.33;;;;;;;;;;5097887;28;20221;-77
2022/03/16 01:29:47;;;;;;;15.37;10.43;;;;;;;;;;5095764;28;20238;-76
2022/03/16 01:32:16;;;;;;;16.47;11.17;;;;;;;;;;5095982;28;20213;-77
2022/03/16 01:34:46;;;;;;;17.53;11.77;;;;;;;;;;5094787;28;20209;-78
2022/03/16 01:37:14;;;;;;;18.20;12.03;;;;;;;;;;5094210;28;20225;-77
2022/03/16 01:39:43;;;;;;;16.17;10.23;;;;;;;;;;5094344;28;20619;-77
2022/03/16 01:42:11;;;;;;;13.30;10.13;;;;;;;;;;5094576;28;20212;-77
2022/03/16 01:44:44;;;;;;;15.47;10.77;;;;;;;;;;5094112;28;20686;-76
2022/03/16 01:47:12;;;;;;;18.53;12.23;;;;;;;;;;5094562;28;20229;-76
2022/03/16 01:49:41;;;;;;;18.70;12.50;;;;;;;;;;5093914;28;20219;-77
2022/03/16 01:52:11;;;;;;;17.53;12.77;;;;;;;;;;5094830;28;20207;-77
2022/03/16 01:54:41;;;;;;;18.70;12.57;;;;;;;;;;5094684;28;20213;-76
2022/03/16 01:57:11;;;;;;;16.73;12.00;;;;;;;;;;5094982;28;20220;-77
2022/03/16 01:59:40;;;;;;;20.00;13.37;;;;;;;;;;5096286;28;20224;-76
2022/03/16 02:02:08;;;;;;;17.67;11.70;;;;;;;;;;5086656;28;20234;-76
2022/03/16 02:04:37;;;;;;;18.77;12.97;;;;;;;;;;5095715;28;20245;-77
2022/03/16 02:07:06;;;;;;;17.40;12.63;;;;;;;;;;5095530;28;20224;-76
2022/03/16 02:09:36;;;;;;;19.17;12.97;;;;;;;;;;5089012;28;20281;-77
2022/03/16 02:12:05;;;;;;;20.27;13.77;;;;;;;;;;5096054;28;20212;-77
2022/03/16 02:14:34;;;;;;;19.70;14.17;;;;;;;;;;5095565;28;20253;-78
2022/03/16 02:17:04;;;;;;;24.37;15.27;;;;;;;;;;5074772;28;20259;-77
2022/03/16 02:19:34;;;;;;;25.03;14.87;;;;;;;;;;5091425;28;20200;-78
2022/03/16 02:22:04;;;;;;;21.20;14.73;;;;;;;;;;5094596;28;20200;-77
2022/03/16 02:24:33;;;;;;;22.23;14.73;;;;;;;;;;5093631;28;20226;-77
2022/03/16 02:27:02;;;;;;;17.57;12.93;;;;;;;;;;5094392;28;20223;-77
2022/03/16 02:29:31;;;;;;;17.53;13.07;;;;;;;;;;5094994;28;20224;-78
2022/03/16 02:31:59;;;;;;;21.23;14.67;;;;;;;;;;5094762;28;20683;-78
2022/03/16 02:34:28;;;;;;;21.47;14.77;;;;;;;;;;5093636;28;20220;-78
2022/03/16 02:36:57;;;;;;;19.57;14.10;;;;;;;;;;5094786;28;20226;-78
2022/03/16 02:39:25;;;;;;;21.37;13.50;;;;;;;;;;5089783;28;20545;-78
2022/03/16 02:41:55;;;;;;;17.50;13.07;;;;;;;;;;5091120;28;20563;-76
2022/03/16 02:44:23;;;;;;;16.77;12.93;;;;;;;;;;5094637;28;20199;-76
2022/03/16 02:46:53;;;;;;;17.40;12.93;;;;;;;;;;5094492;28;20232;-77
2022/03/16 02:49:21;;;;;;;18.17;13.47;;;;;;;;;;5094972;28;20709;-77
2022/03/16 02:51:50;;;;;;;19.23;14.17;;;;;;;;;;5093885;28;20211;-77
2022/03/16 02:54:18;;;;;;;19.03;13.17;;;;;;;;;;5093882;28;20208;-76
2022/03/16 02:56:47;;;;;;;19.23;13.57;;;;;;;;;;5093435;28;20617;-77
2022/03/16 02:59:17;;;;;;;19.90;13.57;;;;;;;;;;5092921;28;20208;-77
2022/03/16 03:01:46;;;;;;;17.97;13.33;;;;;;;;;;5091796;28;20207;-78
2022/03/16 03:04:14;;;;;;;17.63;13.33;;;;;;;;;;5092032;28;20217;-78
2022/03/16 03:06:43;;;;;;;19.83;14.10;;;;;;;;;;5088402;28;20227;-78
2022/03/16 03:09:11;;;;;;;19.57;14.27;;;;;;;;;;5086592;28;20207;-78
2022/03/16 03:11:40;;;;;;;21.97;14.93;;;;;;;;;;5092753;28;20563;-76
2022/03/16 03:14:08;;;;;;;20.60;13.73;;;;;;;;;;5092821;28;20201;-76
2022/03/16 03:16:38;;;;;;;24.60;15.53;;;;;;;;;;5092363;28;20221;-76
2022/03/16 03:19:07;;;;;;;24.47;14.90;;;;;;;;;;5093824;28;20196;-77
2022/03/16 03:21:35;;;;;;;22.07;14.30;;;;;;;;;;5096541;28;20204;-77
2022/03/16 03:24:04;;;;;;;21.67;14.50;;;;;;;;;;5096420;28;20204;-77
2022/03/16 03:26:35;;;;;;;22.87;14.73;;;;;;;;;;5078448;28;20223;-76
2022/03/16 03:29:04;;;;;;;23.70;15.07;;;;;;;;;;5091027;28;20226;-77
2022/03/16 03:31:32;;;;;;;20.00;16.17;;;;;;;;;;5095969;28;20225;-76
2022/03/16 03:34:02;;;;;;;22.30;15.07;;;;;;;;;;5095042;28;20230;-78
2022/03/16 03:36:31;;;;;;;23.73;16.40;;;;;;;;;;5097164;28;20616;-76
2022/03/16 03:38:59;;;;;;;23.27;15.13;;;;;;;;;;5096566;28;20205;-78
2022/03/16 03:41:28;;;;;;;22.27;16.10;;;;;;;;;;5089092;28;20287;-78
2022/03/16 03:43:56;;;;;;;23.40;16.67;;;;;;;;;;5095666;28;20250;-78
2022/03/16 03:46:25;;;;;;;21.63;15.00;;;;;;;;;;5096673;28;20691;-76
2022/03/16 03:48:53;;;;;;;24.33;16.87;;;;;;;;;;5096700;28;20260;-78
2022/03/16 03:51:23;;;;;;;24.13;17.90;;;;;;;;;;5096115;28;20249;-77
2022/03/16 03:53:52;;;;;;;24.73;16.67;;;;;;;;;;5095780;28;20212;-77
2022/03/16 03:56:20;;;;;;;23.23;16.60;;;;;;;;;;5096782;28;20227;-77
2022/03/16 03:58:49;;;;;;;24.93;17.00;;;;;;;;;;5095768;28;20675;-77
2022/03/16 04:01:17;;;;;;;24.70;16.27;;;;;;;;;;5096243;28;20210;-76
2022/03/16 04:03:46;;;;;;;25.57;16.80;;;;;;;;;;5095906;28;20210;-76
2022/03/16 04:06:14;;;;;;;26.50;17.07;;;;;;;;;;5095139;28;20220;-77
2022/03/16 04:08:44;;;;;;;25.90;16.97;;;;;;;;;;5095895;28;20648;-77
2022/03/16 04:11:13;;;;;;;26.60;16.80;;;;;;;;;;5094831;28;20281;-76
2022/03/16 04:13:41;;;;;;;24.73;15.70;;;;;;;;;;5088304;28;20217;-76
2022/03/16 04:16:10;;;;;;;24.37;16.50;;;;;;;;;;5095320;28;20659;-77
2022/03/16 04:18:38;;;;;;;24.67;15.17;;;;;;;;;;5095648;28;20200;-77
2022/03/16 04:21:10;;;;;;;27.60;15.73;;;;;;;;;;5096122;28;20185;-76
2022/03/16 04:23:38;;;;;;;64.87;19.93;;;;;;;;;;5095218;28;20209;-76
2022/03/16 04:26:08;;;;;;;58.47;23.70;;;;;;;;;;5094081;28;20198;-76
2022/03/16 04:28:37;;;;;;;36.63;22.73;;;;;;;;;;5095140;28;20200;-77
2022/03/16 04:31:06;;;;;;;35.80;20.07;;;;;;;;;;5094120;28;20308;-77
2022/03/16 04:33:37;;;;;;;52.53;21.00;;;;;;;;;;5094833;28;20214;-77
2022/03/16 04:36:06;;;;;;;49.30;22.67;;;;;;;;;;5095544;28;20207;-76
2022/03/16 04:38:35;;;;;;;43.10;22.83;;;;;;;;;;5095345;28;20198;-77
2022/03/16 04:41:04;;;;;;;52.80;25.10;;;;;;;;;;5092148;28;20212;-78
2022/03/16 04:43:33;;;;;;;55.93;24.07;;;;;;;;;;5095171;28;20266;-76
2022/03/16 04:46:02;;;;;;;30.50;20.00;;;;;;;;;;5095040;28;20248;-78
2022/03/16 04:48:30;;;;;;;27.50;18.43;;;;;;;;;;5095094;28;20208;-76
2022/03/16 04:50:59;;;;;;;30.97;18.23;;;;;;;;;;5095445;28;20265;-77
2022/03/16 04:53:27;;;;;;;34.63;21.33;;;;;;;;;;5094864;28;20253;-77
2022/03/16 04:55:55;;;;;;;33.83;20.40;;;;;;;;;;5095329;28;20200;-77
2022/03/16 04:58:24;;;;;;;33.43;19.50;;;;;;;;;;5087182;28;20209;-76
2022/03/16 05:00:54;;;;;;;38.03;21.47;;;;;;;;;;5086824;28;20200;-77
2022/03/16 05:03:22;;;;;;;40.73;21.63;;;;;;;;;;5095203;28;20227;-75
2022/03/16 05:05:51;;;;;;;47.43;24.90;;;;;;;;;;5095208;28;20663;-77
2022/03/16 05:08:19;;;;;;;40.10;21.57;;;;;;;;;;5095362;28;20600;-76
2022/03/16 05:10:47;;;;;;;44.70;22.93;;;;;;;;;;5095036;28;20235;-76
2022/03/16 05:13:16;;;;;;;39.90;22.47;;;;;;;;;;5094699;28;20204;-76
2022/03/16 05:15:44;;;;;;;42.90;25.80;;;;;;;;;;5087527;28;20211;-76
2022/03/16 05:18:14;;;;;;;44.50;26.03;;;;;;;;;;5093842;28;20223;-76
2022/03/16 05:20:43;;;;;;;43.57;24.90;;;;;;;;;;5094673;28;20230;-76
2022/03/16 05:23:11;;;;;;;42.97;25.10;;;;;;;;;;5094430;28;20212;-76
2022/03/16 05:25:39;;;;;;;41.70;23.73;;;;;;;;;;5094987;28;20203;-76
2022/03/16 05:28:08;;;;;;;35.20;21.97;;;;;;;;;;5093521;28;20223;-76
2022/03/16 05:30:36;;;;;;;40.17;22.90;;;;;;;;;;5085294;28;20261;-76
2022/03/16 05:33:05;;;;;;;33.57;21.63;;;;;;;;;;5094442;28;20574;-76
2022/03/16 05:35:35;;;;;;;35.97;21.00;;;;;;;;;;5094126;28;20254;-76
2022/03/16 05:38:05;;;;;;;33.10;19.93;;;;;;;;;;5094804;28;20244;-76
2022/03/16 05:40:34;;;;;;;34.63;21.57;;;;;;;;;;5094520;28;20208;-76
2022/03/16 05:43:02;;;;;;;34.60;20.53;;;;;;;;;;5093508;28;20291;-76
2022/03/16 05:45:31;;;;;;;32.13;21.47;;;;;;;;;;5093376;28;20256;-76
2022/03/16 05:47:59;;;;;;;35.67;21.07;;;;;;;;;;5092672;28;20252;-76
2022/03/16 05:50:28;;;;;;;34.17;21.10;;;;;;;;;;5092543;28;20214;-77
2022/03/16 05:52:58;;;;;;;30.47;19.90;;;;;;;;;;5092752;28;20885;-77
2022/03/16 05:55:27;;;;;;;35.70;21.77;;;;;;;;;;5084887;28;20196;-77
2022/03/16 05:57:56;;;;;;;36.03;22.13;;;;;;;;;;5076760;28;20269;-76
2022/03/16 06:00:24;;;;;;;41.70;23.07;;;;;;;;;;5094109;28;20738;-77
2022/03/16 06:02:52;;;;;;;37.83;24.13;;;;;;;;;;5092392;28;20209;-77
2022/03/16 06:05:25;;;;;;;43.10;23.93;;;;;;;;;;5093802;28;20194;-77
2022/03/16 06:07:54;;;;;;;38.47;23.00;;;;;;;;;;5092121;28;20222;-77
2022/03/16 06:10:24;;;;;;;35.33;22.70;;;;;;;;;;5088686;28;20208;-78
2022/03/16 06:12:53;;;;;;;29.67;21.40;;;;;;;;;;5094157;28;20325;-77
2022/03/16 06:15:22;;;;;;;32.33;21.67;;;;;;;;;;5099742;28;20211;-76
2022/03/16 06:17:51;;;;;;;32.73;22.50;;;;;;;;;;5101079;28;20227;-76
2022/03/16 06:20:20;;;;;;;34.73;22.93;;;;;;;;;;5102119;28;20196;-77
2022/03/16 06:22:48;;;;;;;27.93;20.63;;;;;;;;;;5104364;28;20204;-76
2022/03/16 06:25:16;;;;;;;29.27;21.37;;;;;;;;;;5102285;28;20624;-76
2022/03/16 06:27:46;;;;;;;30.27;21.63;;;;;;;;;;5103173;28;20227;-76
2022/03/16 06:30:15;;;;;;;34.43;23.77;;;;;;;;;;5102583;28;20197;-76
2022/03/16 06:32:45;;;;;;;35.70;22.53;;;;;;;;;;5105204;28;20221;-75
2022/03/16 06:35:14;;;;;;;34.70;22.60;;;;;;;;;;5104950;28;20207;-76
2022/03/16 06:37:42;;;;;;;32.17;21.97;;;;;;;;;;5105737;28;20220;-76
2022/03/16 06:40:11;;;;;;;42.17;23.90;;;;;;;;;;5103794;28;20643;-76
2022/03/16 06:42:47;;;;;;;35.67;23.97;;;;;;;;;;5106195;28;20197;-76
2022/03/16 06:45:16;;;;;;;31.80;22.10;;;;;;;;;;5105479;28;20203;-76
2022/03/16 06:47:45;;;;;;;35.80;23.77;;;;;;;;;;5106130;28;20258;-76
2022/03/16 06:50:13;;;;;;;35.67;23.67;;;;;;;;;;5105791;28;20204;-76
2022/03/16 06:52:42;;;;;;;40.27;26.30;;;;;;;;;;5103645;28;20220;-77
2022/03/16 06:55:11;;;;;;;37.10;25.00;;;;;;;;;;5105451;28;20258;-77
2022/03/16 06:57:39;;;;;;;34.87;25.33;;;;;;;;;;5105944;28;20224;-77
2022/03/16 07:00:13;;;;;;;34.97;24.37;;;;;;;;;;5105860;28;20211;-76
2022/03/16 07:02:51;;;;;;;39.87;25.50;;;;;;;;;;5105811;28;20220;-76
2022/03/16 07:05:20;;;;;;;35.27;24.60;;;;;;;;;;5106420;28;20231;-78
2022/03/16 07:07:50;;;;;;;37.43;25.43;;;;;;;;;;5105982;28;20225;-76
2022/03/16 07:10:20;;;;;;;36.17;25.10;;;;;;;;;;5105035;28;20213;-77
2022/03/16 07:12:48;;;;;;;38.93;26.67;;;;;;;;;;5085676;28;20232;-76
2022/03/16 07:15:18;;;;;;;39.67;26.97;;;;;;;;;;5085121;28;20209;-77
2022/03/16 07:17:46;;;;;;;40.77;27.63;;;;;;;;;;5092856;28;20220;-77
2022/03/16 07:20:15;;;;;;;36.90;26.87;;;;;;;;;;5105025;28;20197;-77
2022/03/16 07:22:44;;;;;;;44.13;27.57;;;;;;;;;;5105469;28;20628;-77
2022/03/16 07:25:29;;;;;;;35.37;25.97;;;;;;;;;;5105766;28;20198;-77
2022/03/16 07:27:57;;;;;;;37.43;26.10;;;;;;;;;;5105138;28;20248;-79
2022/03/16 07:30:27;;;;;;;38.13;27.80;;;;;;;;;;5105995;28;20198;-78
2022/03/16 07:32:59;;;;;;;42.77;29.17;;;;;;;;;;5105963;28;20232;-77
2022/03/16 07:35:27;;;;;;;39.07;27.80;;;;;;;;;;5105592;28;20189;-77
2022/03/16 07:37:56;;;;;;;39.43;27.83;;;;;;;;;;5105781;28;20220;-77
2022/03/16 07:40:26;;;;;;;36.23;25.53;;;;;;;;;;5104939;28;20199;-76
2022/03/16 07:42:54;;;;;;;39.43;27.20;;;;;;;;;;5105263;28;20199;-77
2022/03/16 07:45:23;;;;;;;39.47;26.50;;;;;;;;;;5105991;28;20203;-77
2022/03/16 07:47:55;;;;;;;32.30;23.63;;;;;;;;;;5105652;28;20576;-77
2022/03/16 07:50:24;;;;;;;36.13;26.13;;;;;;;;;;5104815;28;20209;-77
2022/03/16 07:52:53;;;;;;;37.13;25.87;;;;;;;;;;5104851;28;20257;-77
2022/03/16 07:55:22;;;;;;;38.47;26.80;;;;;;;;;;5105251;28;20204;-78
2022/03/16 07:57:52;;;;;;;44.33;29.57;;;;;;;;;;5105969;28;20222;-78
2022/03/16 08:00:21;;;;;;;45.87;30.63;;;;;;;;;;5106217;28;20213;-78
2022/03/16 08:02:57;;;;;;;42.50;27.30;;;;;;;;;;5104306;28;20239;-78
2022/03/16 08:05:25;;;;;;;40.13;26.83;;;;;;;;;;5106026;28;20268;-77
2022/03/16 08:07:54;;;;;;;47.10;31.60;;;;;;;;;;5103494;28;20290;-77
2022/03/16 08:10:22;;;;;;;44.53;30.93;;;;;;;;;;5102091;28;20788;-78
2022/03/16 08:12:51;;;;;;;53.57;34.03;;;;;;;;;;5091366;28;20562;-77
2022/03/16 08:15:19;;;;;;;54.10;34.20;;;;;;;;;;5101308;28;20207;-78
2022/03/16 08:17:48;;;;;;;61.63;39.17;;;;;;;;;;5102934;28;20219;-77
2022/03/16 08:20:18;;;;;;;56.87;38.37;;;;;;;;;;5104605;28;20209;-76
2022/03/16 08:22:46;;;;;;;58.77;39.47;;;;;;;;;;5102955;28;20241;-77
2022/03/16 08:25:14;;;;;;;49.53;34.33;;;;;;;;;;5098369;28;20733;-77
2022/03/16 08:27:43;;;;;;;46.57;32.57;;;;;;;;;;5102039;28;20229;-78
2022/03/16 08:30:12;;;;;;;50.63;34.80;;;;;;;;;;5103490;28;20267;-77
2022/03/16 08:32:41;;;;;;;48.33;34.87;;;;;;;;;;5103043;28;20227;-78
2022/03/16 08:35:11;;;;;;;49.33;35.07;;;;;;;;;;5101050;28;20210;-78
2022/03/16 08:37:40;;;;;;;47.63;33.67;;;;;;;;;;5101366;28;20617;-78
2022/03/16 08:40:09;;;;;;;52.47;37.17;;;;;;;;;;5101102;28;20209;-77
2022/03/16 08:42:38;;;;;;;50.00;35.77;;;;;;;;;;5097412;28;20213;-77
2022/03/16 08:45:07;;;;;;;55.47;37.37;;;;;;;;;;5097841;28;20267;-77
2022/03/16 08:47:35;;;;;;;53.57;39.10;;;;;;;;;;5098157;28;20221;-78
2022/03/16 08:50:04;;;;;;;55.87;38.97;;;;;;;;;;5099530;28;20612;-79
2022/03/16 08:52:32;;;;;;;55.50;39.33;;;;;;;;;;5097317;28;20268;-79
2022/03/16 08:55:02;;;;;;;47.97;34.50;;;;;;;;;;5097603;28;20209;-78
2022/03/16 08:57:30;;;;;;;50.33;36.17;;;;;;;;;;5102151;28;20701;-78
2022/03/16 08:59:59;;;;;;;53.00;37.57;;;;;;;;;;5102851;28;20213;-78
2022/03/16 09:02:27;;;;;;;54.27;38.60;;;;;;;;;;5101674;28;20205;-78
2022/03/16 09:04:56;;;;;;;54.10;39.23;;;;;;;;;;5103756;28;20297;-78
2022/03/16 09:07:24;;;;;;;52.93;38.63;;;;;;;;;;5104646;28;20244;-78
2022/03/16 09:09:53;;;;;;;49.20;35.70;;;;;;;;;;5105485;28;20209;-76
2022/03/16 09:12:23;;;;;;;44.00;33.57;;;;;;;;;;5093322;28;20645;-78
2022/03/16 09:14:51;;;;;;;47.97;35.50;;;;;;;;;;5101031;28;20214;-77
2022/03/16 09:17:20;;;;;;;36.93;28.43;;;;;;;;;;5104861;28;20218;-77
2022/03/16 09:19:50;;;;;;;42.77;30.73;;;;;;;;;;5085307;28;20665;-77
2022/03/16 09:22:18;;;;;;;36.13;26.93;;;;;;;;;;5086880;28;20206;-77
2022/03/16 09:24:48;;;;;;;38.00;29.07;;;;;;;;;;5086459;28;20203;-77
2022/03/16 09:27:16;;;;;;;34.73;26.40;;;;;;;;;;5086118;28;20226;-78
2022/03/16 09:29:47;;;;;;;33.50;26.17;;;;;;;;;;5100462;28;20259;-77
2022/03/16 09:32:15;;;;;;;31.17;22.70;;;;;;;;;;5101050;28;20209;-78
2022/03/16 09:34:44;;;;;;;29.07;22.77;;;;;;;;;;5099847;28;20278;-77
2022/03/16 09:37:12;;;;;;;28.37;21.80;;;;;;;;;;5097812;28;20218;-78
2022/03/16 09:39:41;;;;;;;28.20;21.70;;;;;;;;;;5079547;28;20205;-76
2022/03/16 09:42:10;;;;;;;27.10;21.07;;;;;;;;;;5095208;28;20201;-78
2022/03/16 09:44:39;;;;;;;25.63;20.83;;;;;;;;;;5096463;28;20202;-77
2022/03/16 09:47:09;;;;;;;25.80;20.77;;;;;;;;;;5096953;28;20249;-78
2022/03/16 09:49:39;;;;;;;32.10;22.63;;;;;;;;;;5097657;28;20656;-77
2022/03/16 09:52:09;;;;;;;27.03;21.80;;;;;;;;;;5097091;28;20202;-77
2022/03/16 09:54:37;;;;;;;27.43;22.20;;;;;;;;;;5095887;28;20218;-77
2022/03/16 09:57:06;;;;;;;26.67;21.70;;;;;;;;;;5095621;28;20221;-77
2022/03/16 09:59:35;;;;;;;27.03;21.47;;;;;;;;;;5096179;28;20201;-77
2022/03/16 10:02:06;;;;;;;26.73;21.33;;;;;;;;;;5095959;28;20214;-78
2022/03/16 10:04:36;;;;;;;28.00;22.30;;;;;;;;;;5095399;28;20194;-78
2022/03/16 10:07:06;;;;;;;25.70;21.57;;;;;;;;;;5097147;28;20253;-78
2022/03/16 10:15:10;;;;;;;22.23;18.70;;;;;;;;;;5074195;28;20708;-78
2022/03/16 10:17:45;;;;;;;20.20;16.50;;;;;;;;;;5087856;28;20222;-79
2022/03/16 10:20:27;;;;;;;18.73;15.83;;;;;;;;;;5094596;28;20216;-77
2022/03/16 10:22:59;;;;;;;19.30;15.67;;;;;;;;;;5096228;28;20194;-77
2022/03/16 10:25:28;;;;;;;18.03;14.87;;;;;;;;;;5094460;28;20185;-78
2022/03/16 10:28:10;;;;;;;17.60;13.67;;;;;;;;;;5094629;28;20225;-77
2022/03/16 10:30:57;;;;;;;18.53;13.93;;;;;;;;;;5099333;28;20200;-78
2022/03/16 10:33:27;;;;;;;16.47;13.50;;;;;;;;;;5098977;28;20205;-78
2022/03/16 10:35:58;;;;;;;19.67;14.30;;;;;;;;;;5099751;28;20210;-78
2022/03/16 10:38:26;;;;;;;16.97;13.47;;;;;;;;;;5100989;28;20220;-78
2022/03/16 10:41:10;;;;;;;20.97;14.70;;;;;;;;;;5099337;28;20221;-78
2022/03/16 10:46:38;;;;;;;16.67;13.17;;;;;;;;;;5060229;28;20223;-78
2022/03/16 10:49:09;;;;;;;16.27;13.53;;;;;;;;;;5098864;28;20192;-77
2022/03/16 10:51:39;;;;;;;14.03;12.53;;;;;;;;;;5100191;28;20605;-79
2022/03/16 10:54:24;;;;;;;19.27;14.10;;;;;;;;;;5099753;28;20672;-78
2022/03/16 10:56:54;;;;;;;17.50;14.33;;;;;;;;;;5099382;28;20598;-77
2022/03/16 10:59:24;;;;;;;17.27;14.13;;;;;;;;;;5083435;28;20198;-78
2022/03/16 11:01:53;;;;;;;19.50;13.93;;;;;;;;;;5100303;28;20600;-79
2022/03/16 11:04:24;;;;;;;17.03;14.50;;;;;;;;;;5100956;28;20589;-78
2022/03/16 11:06:56;;;;;;;19.93;15.67;;;;;;;;;;5099393;28;20734;-78
2022/03/16 11:09:25;;;;;;;18.90;16.37;;;;;;;;;;5100547;28;20263;-78
2022/03/16 11:14:40;;;;;;;20.80;16.57;;;;;;;;;;5100076;28;20206;-78
2022/03/16 11:17:10;;;;;;;17.90;15.67;;;;;;;;;;5099796;28;20213;-78
2022/03/16 11:19:39;;;;;;;17.17;14.87;;;;;;;;;;5100568;28;20222;-77
2022/03/16 11:22:11;;;;;;;19.53;16.33;;;;;;;;;;5097782;28;20245;-78
2022/03/16 11:24:42;;;;;;;18.63;15.90;;;;;;;;;;5091157;28;20186;-78
2022/03/16 11:27:16;;;;;;;20.70;16.37;;;;;;;;;;5100023;28;20539;-77
2022/03/16 11:29:59;;;;;;;19.60;15.60;;;;;;;;;;5099234;28;20254;-79
2022/03/16 11:32:36;;;;;;;18.83;15.40;;;;;;;;;;5092003;28;20198;-78
2022/03/16 11:35:05;;;;;;;19.70;15.43;;;;;;;;;;5101503;28;20205;-78
2022/03/16 11:37:35;;;;;;;20.67;16.40;;;;;;;;;;5100025;28;20574;-77
2022/03/16 11:40:11;;;;;;;18.27;14.70;;;;;;;;;;5103268;28;20197;-78
2022/03/16 11:42:44;;;;;;;18.20;13.80;;;;;;;;;;5105690;28;20216;-79
2022/03/16 11:45:31;;;;;;;15.67;13.77;;;;;;;;;;5106212;28;20718;-78
2022/03/16 11:47:59;;;;;;;18.53;14.33;;;;;;;;;;5105033;28;20221;-77
2022/03/16 11:50:28;;;;;;;17.67;13.23;;;;;;;;;;5106338;28;20210;-78
2022/03/16 11:53:05;;;;;;;17.67;13.50;;;;;;;;;;5106009;28;20189;-77
2022/03/16 11:55:41;;;;;;;15.73;12.97;;;;;;;;;;5106172;28;20213;-78
2022/03/16 11:58:33;;;;;;;16.33;13.17;;;;;;;;;;5106042;28;20549;-79
2022/03/16 12:01:20;;;;;;;16.37;12.80;;;;;;;;;;5092044;28;20611;-78
2022/03/16 12:03:53;;;;;;;15.07;12.60;;;;;;;;;;5106430;28;20220;-78
2022/03/16 12:06:22;;;;;;;16.03;12.37;;;;;;;;;;5084347;28;20215;-78
2022/03/16 12:08:58;;;;;;;16.87;12.20;;;;;;;;;;5099540;28;20641;-77
2022/03/16 12:14:22;;;;;;;15.10;12.47;;;;;;;;;;5036722;28;20207;-79
2022/03/16 12:16:50;;;;;;;14.43;11.90;;;;;;;;;;5094720;28;20758;-78
2022/03/16 12:19:29;;;;;;;14.67;12.17;;;;;;;;;;5105304;28;20210;-79
2022/03/16 12:21:58;;;;;;;13.27;11.03;;;;;;;;;;5106103;28;20233;-78
2022/03/16 12:30:11;;;;;;;12.33;10.47;;;;;;;;;;5100815;28;20212;-79
2022/03/16 12:32:40;;;;;;;15.03;11.37;;;;;;;;;;5103375;28;20205;-78
2022/03/16 12:35:09;;;;;;;13.80;10.97;;;;;;;;;;5097028;28;20225;-79
2022/03/16 12:37:48;;;;;;;14.47;11.07;;;;;;;;;;5097039;28;20222;-78
2022/03/16 12:40:21;;;;;;;13.17;10.60;;;;;;;;;;5096754;28;20251;-79
2022/03/16 12:42:53;;;;;;;11.07;9.13;;;;;;;;;;5077528;28;20203;-78
2022/03/16 12:45:25;;;;;;;13.57;10.10;;;;;;;;;;5088426;28;20194;-80
2022/03/16 12:48:00;;;;;;;14.63;10.33;;;;;;;;;;5096127;28;20213;-79
2022/03/16 12:50:28;;;;;;;16.30;9.97;;;;;;;;;;5098370;28;20231;-79
2022/03/16 12:52:57;;;;;;;12.17;9.73;;;;;;;;;;5098124;28;20202;-78
2022/03/16 12:55:27;;;;;;;14.67;9.70;;;;;;;;;;5096355;28;20594;-79
2022/03/16 12:57:56;;;;;;;10.97;9.80;;;;;;;;;;5097422;28;20255;-78
2022/03/16 13:00:32;;;;;;;13.20;9.23;;;;;;;;;;5098167;28;20194;-77
2022/03/16 13:03:13;;;;;;;11.73;9.13;;;;;;;;;;5097817;28;20185;-78
2022/03/16 13:05:41;;;;;;;12.30;9.50;;;;;;;;;;5098775;28;20190;-79
2022/03/16 13:08:10;;;;;;;11.37;8.77;;;;;;;;;;5098779;28;20213;-78
2022/03/16 13:13:22;;;;;;;11.27;8.93;;;;;;;;;;5098413;28;20213;-78
2022/03/16 13:15:51;;;;;;;11.87;9.03;;;;;;;;;;5105449;28;20218;-78
2022/03/16 13:18:30;;;;;;;11.43;8.83;;;;;;;;;;5103794;28;20202;-78
2022/03/16 13:20:58;;;;;;;12.33;9.00;;;;;;;;;;5105717;28;20196;-78
2022/03/16 13:23:31;;;;;;;10.00;8.43;;;;;;;;;;5088161;28;20610;-77
2022/03/16 13:26:10;;;;;;;9.30;7.50;;;;;;;;;;5095865;28;20190;-78
2022/03/16 13:28:39;;;;;;;10.43;7.90;;;;;;;;;;5105519;28;20202;-79
2022/03/16 13:31:07;;;;;;;11.00;8.37;;;;;;;;;;5106214;28;20227;-78
2022/03/16 13:33:36;;;;;;;9.77;7.47;;;;;;;;;;5106012;28;20233;-78
2022/03/16 13:36:11;;;;;;;9.67;8.00;;;;;;;;;;5104789;28;20224;-78
2022/03/16 13:38:40;;;;;;;11.20;7.47;;;;;;;;;;5105964;28;20205;-77
2022/03/16 13:41:13;;;;;;;9.50;7.80;;;;;;;;;;5103539;28;20210;-77
2022/03/16 13:43:41;;;;;;;11.23;7.73;;;;;;;;;;5104890;28;20244;-79
2022/03/16 13:46:13;;;;;;;10.57;6.90;;;;;;;;;;5105107;28;20228;-79
2022/03/16 13:48:43;;;;;;;9.67;7.20;;;;;;;;;;5105130;28;20198;-79
2022/03/16 13:51:12;;;;;;;10.27;7.70;;;;;;;;;;5106258;28;20251;-78
2022/03/16 13:53:41;;;;;;;9.93;6.40;;;;;;;;;;5105891;28;20205;-78
2022/03/16 13:56:17;;;;;;;9.60;7.00;;;;;;;;;;5106076;28;20282;-78
2022/03/16 13:58:47;;;;;;;8.07;6.27;;;;;;;;;;5104431;28;20198;-79
2022/03/16 14:01:20;;;;;;;8.97;6.23;;;;;;;;;;5106615;28;20213;-80
2022/03/16 14:03:49;;;;;;;8.40;6.47;;;;;;;;;;5105089;28;20190;-78
2022/03/16 14:06:17;;;;;;;9.57;6.07;;;;;;;;;;5104807;28;20210;-81
2022/03/16 14:08:52;;;;;;;10.40;6.50;;;;;;;;;;5104595;28;20205;-79
2022/03/16 14:11:33;;;;;;;10.40;6.47;;;;;;;;;;5104952;28;20209;-77
2022/03/16 14:14:10;;;;;;;9.67;6.73;;;;;;;;;;5104432;28;20242;-78
2022/03/16 14:16:43;;;;;;;8.57;6.27;;;;;;;;;;5104546;28;20224;-78
2022/03/16 14:19:25;;;;;;;10.53;6.57;;;;;;;;;;5104812;28;20205;-79
2022/03/16 14:21:53;;;;;;;8.87;6.53;;;;;;;;;;5105921;28;20194;-78
2022/03/16 14:24:22;;;;;;;9.97;7.43;;;;;;;;;;5105024;28;20201;-78
2022/03/16 14:26:52;;;;;;;10.50;6.80;;;;;;;;;;5105936;28;20242;-78
2022/03/16 14:29:22;;;;;;;9.97;6.70;;;;;;;;;;5104731;28;20634;-79
2022/03/16 14:31:51;;;;;;;7.93;6.50;;;;;;;;;;5102969;28;20285;-77
2022/03/16 14:34:20;;;;;;;8.70;6.57;;;;;;;;;;5102755;28;20227;-77
2022/03/16 14:36:49;;;;;;;10.47;7.20;;;;;;;;;;5104129;28;20744;-78
2022/03/16 14:39:33;;;;;;;11.10;7.20;;;;;;;;;;5104332;28;20296;-80
2022/03/16 14:42:03;;;;;;;10.27;7.00;;;;;;;;;;5105242;28;20201;-78
2022/03/16 14:44:32;;;;;;;10.47;7.97;;;;;;;;;;5105699;28;20251;-79
2022/03/16 14:47:01;;;;;;;9.07;7.40;;;;;;;;;;5104467;28;20218;-79
2022/03/16 14:49:32;;;;;;;11.80;8.17;;;;;;;;;;5104383;28;20194;-79
2022/03/16 14:52:02;;;;;;;11.47;8.23;;;;;;;;;;5104081;28;20206;-80
2022/03/16 14:54:30;;;;;;;10.13;7.93;;;;;;;;;;5104650;28;20194;-80
2022/03/16 14:57:00;;;;;;;10.97;8.73;;;;;;;;;;5105910;28;20274;-79